createdAt,value
2022-09-17T00:01:35.516Z,95472.86
2022-09-17T00:04:24.171Z,95477.98
2022-09-17T00:10:06.099Z,95473.82
2022-09-17T00:15:56.282Z,95473.89
2022-09-17T00:21:32.211Z,95475.55
2022-09-17T00:24:23.938Z,95479.91
2022-09-17T00:27:12.184Z,95476.59
2022-09-17T00:30:01.319Z,95466.59
2022-09-17T00:32:49.772Z,95474.36
2022-09-17T00:38:28.510Z,95478.75
2022-09-17T00:43:57.736Z,95484.59
2022-09-17T00:46:47.852Z,95483.77
2022-09-17T00:49:37.155Z,95489.52
2022-09-17T00:55:19.657Z,95487.87
2022-09-17T01:01:15.328Z,95506.49
2022-09-17T01:06:52.009Z,95507.33
2022-09-17T01:12:54.557Z,95508.68
2022-09-17T01:18:42.073Z,95507.58
2022-09-17T01:21:44.784Z,95508.94
2022-09-17T01:28:12.997Z,95498.95
2022-09-17T01:34:03.829Z,95504.86
2022-09-17T01:39:41.656Z,95507.33
2022-09-17T01:45:22.287Z,95508.33
2022-09-17T01:51:02.672Z,95515.50
2022-09-17T01:56:40.478Z,95520.67
2022-09-17T02:02:28.416Z,95510.30
2022-09-17T02:05:20.585Z,95520.05
2022-09-17T02:08:23.361Z,95520.94
2022-09-17T02:17:15.291Z,95528.98
2022-09-17T02:22:53.844Z,95525.70
2022-09-17T02:28:39.178Z,95523.66
2022-09-17T02:31:30.363Z,95527.50
2022-09-17T02:37:08.733Z,95523.88
2022-09-17T02:43:13.053Z,95515.06
2022-09-17T02:46:08.220Z,95520.03
2022-09-17T02:52:09.033Z,95518.23
2022-09-17T02:57:53.007Z,95518.90
2022-09-17T03:00:41.251Z,95519.35
2022-09-17T03:06:22.383Z,95534.91
2022-09-17T03:09:15.968Z,95536.04
2022-09-17T03:14:52.967Z,95537.77
2022-09-17T03:20:28.220Z,95538.44
2022-09-17T03:23:27.868Z,95539.15
2022-09-17T03:26:21.442Z,95537.74
2022-09-17T03:29:11.465Z,95536.27
2022-09-17T03:34:46.727Z,95545.45
2022-09-17T03:37:35.011Z,95552.73
2022-09-17T03:43:12.832Z,95545.91
2022-09-17T03:48:52.275Z,95553.26
2022-09-17T03:54:27.202Z,95552.56
2022-09-17T03:59:58.936Z,95555.02
2022-09-17T04:05:35.471Z,95570.16
2022-09-17T04:08:24.246Z,95575.52
2022-09-17T04:14:06.043Z,95579.28
2022-09-17T04:19:38.977Z,95581.77
2022-09-17T04:25:16.964Z,95582.30
2022-09-17T04:28:05.668Z,95579.76
2022-09-17T04:33:34.827Z,95583.41
2022-09-17T04:39:11.248Z,95590.66
2022-09-17T04:44:39.434Z,95594.95
2022-09-17T04:47:28.130Z,95595.67
2022-09-17T04:53:01.829Z,95590.02
2022-09-17T04:55:50.379Z,95596.08
2022-09-17T05:01:25.832Z,95595.39
2022-09-17T05:06:57.284Z,95598.61
2022-09-17T05:12:34.644Z,95607.85
2022-09-17T05:18:08.332Z,95626.25
2022-09-17T05:23:45.433Z,95634.44
2022-09-17T05:29:21.885Z,95626.25
2022-09-17T05:34:57.457Z,95634.64
2022-09-17T05:40:34.851Z,95642.29
2022-09-17T05:43:24.086Z,95643.36
2022-09-17T05:46:14.186Z,95639.45
2022-09-17T05:51:48.170Z,95640.69
2022-09-17T05:57:24.020Z,95656.86
2022-09-17T06:00:16.926Z,95665.20
2022-09-17T06:03:05.292Z,95667.36
2022-09-17T06:05:58.074Z,95667.67
2022-09-17T06:11:33.789Z,95678.85
2022-09-17T06:14:22.366Z,95673.25
2022-09-17T06:19:59.073Z,95679.28
2022-09-17T06:22:51.508Z,95688.30
2022-09-17T06:28:26.689Z,95690.51
2022-09-17T06:34:02.859Z,95696.64
2022-09-17T06:36:52.557Z,95692.60
2022-09-17T06:42:22.379Z,95697.84
2022-09-17T06:45:16.410Z,95710.36
2022-09-17T06:48:06.536Z,95703.69
2022-09-17T06:53:41.301Z,95700.98
2022-09-17T06:59:17.134Z,95704.11
2022-09-17T07:04:55.062Z,95700.90
2022-09-17T07:10:45.394Z,95704.50
2022-09-17T07:16:34.859Z,95712.38
2022-09-17T07:22:08.765Z,95727.60
2022-09-17T07:27:38.793Z,95729.06
2022-09-17T07:33:21.482Z,95740.51
2022-09-17T07:38:52.962Z,95747.82
2022-09-17T07:44:28.714Z,95752.52
2022-09-17T07:50:17.953Z,95758.33
2022-09-17T07:55:59.969Z,95759.88
2022-09-17T08:01:34.584Z,95762.29
2022-09-17T08:07:05.989Z,95754.15
2022-09-17T08:12:44.848Z,95753.98
2022-09-17T08:18:29.113Z,95750.34
2022-09-17T08:26:55.619Z,95757.28
2022-09-17T08:32:36.529Z,95768.33
2022-09-17T08:35:26.097Z,95767.28
2022-09-17T08:41:08.703Z,95763.94
2022-09-17T08:49:51.813Z,95775.45
2022-09-17T08:52:59.517Z,95772.41
2022-09-17T08:59:10.106Z,95778.03
2022-09-17T09:05:04.645Z,95776.31
2022-09-17T09:10:46.674Z,95780.69
2022-09-17T09:16:30.653Z,95772.06
2022-09-17T09:27:38.582Z,95758.59
2022-09-17T09:30:27.417Z,95777.97
2022-09-17T09:36:06.919Z,95776.13
2022-09-17T09:38:57.564Z,95777.89
2022-09-17T09:47:32.235Z,95785.67
2022-09-17T09:50:54.750Z,95781.48
2022-09-17T09:56:22.758Z,95769.60
2022-09-17T10:02:15.624Z,95770.67
2022-09-17T10:07:51.479Z,95780.33
2022-09-17T10:13:30.713Z,95764.21
2022-09-17T10:16:21.428Z,95753.92
2022-09-17T10:24:58.240Z,95769.27
2022-09-17T10:30:34.604Z,95777.05
2022-09-17T10:36:06.149Z,95780.52
2022-09-17T10:41:54.281Z,95774.83
2022-09-17T10:47:44.391Z,95782.58
2022-09-17T10:50:37.553Z,95787.62
2022-09-17T10:56:32.432Z,95789.77
2022-09-17T11:02:34.443Z,95780.47
2022-09-17T11:08:49.690Z,95770.97
2022-09-17T11:14:50.725Z,95760.52
2022-09-17T11:21:00.288Z,95768.31
2022-09-17T11:26:47.611Z,95766.69
2022-09-17T11:32:36.106Z,95768.06
2022-09-17T11:38:15.880Z,95766.19
2022-09-17T11:43:56.864Z,95770.40
2022-09-17T11:46:47.912Z,95763.96
2022-09-17T11:52:19.998Z,95773.60
2022-09-17T11:58:03.148Z,95776.56
2022-09-17T12:01:08.395Z,95775.62
2022-09-17T12:06:50.591Z,95769.11
2022-09-17T12:09:40.577Z,95768.59
2022-09-17T12:12:50.021Z,95770.30
2022-09-17T12:18:33.392Z,95766.50
2022-09-17T12:24:00.205Z,95755.41
2022-09-17T12:26:57.116Z,95751.47
2022-09-17T12:30:22.805Z,95756.75
2022-09-17T12:36:40.179Z,95741.59
2022-09-17T12:43:06.193Z,95753.72
2022-09-17T12:49:08.918Z,95759.83
2022-09-17T12:51:58.407Z,95769.38
2022-09-17T12:58:20.314Z,95768.71
2022-09-17T13:03:56.737Z,95768.16
2022-09-17T13:10:42.013Z,95773.32
2022-09-17T13:16:23.705Z,95776.97
2022-09-17T13:21:58.557Z,95782.12
2022-09-17T13:30:24.555Z,95786.19
2022-09-17T13:35:54.382Z,95785.35
2022-09-17T13:41:33.726Z,95783.47
2022-09-17T13:47:28.789Z,95794.23
2022-09-17T13:53:26.751Z,95788.77
2022-09-17T13:59:16.076Z,95807.84
2022-09-17T14:05:39.551Z,95794.31
2022-09-17T14:11:38.568Z,95794.27
2022-09-17T14:17:53.350Z,95798.20
2022-09-17T14:23:28.059Z,95791.91
2022-09-17T14:29:10.457Z,95802.19
2022-09-17T14:34:48.207Z,95816.95
2022-09-17T14:37:36.814Z,95808.43
2022-09-17T14:43:21.202Z,95813.89
2022-09-17T14:48:56.703Z,95816.11
2022-09-17T14:51:45.315Z,95819.98
2022-09-17T14:54:36.478Z,95815.44
2022-09-17T15:00:08.875Z,95803.20
2022-09-17T15:02:57.918Z,95803.86
2022-09-17T15:08:30.084Z,95808.70
2022-09-17T15:11:18.650Z,95805.38
2022-09-17T15:14:08.271Z,95806.70
2022-09-17T15:19:43.136Z,95803.33
2022-09-17T15:25:25.377Z,95800.23
2022-09-17T15:31:08.322Z,95795.54
2022-09-17T15:33:56.799Z,95794.99
2022-09-17T15:37:05.071Z,95797.62
2022-09-17T15:39:55.931Z,95790.90
2022-09-17T15:45:32.104Z,95784.08
2022-09-17T15:48:27.957Z,95783.27
2022-09-17T15:54:05.401Z,95784.41
2022-09-17T15:59:42.231Z,95789.02
2022-09-17T16:05:49.322Z,95785.77
2022-09-17T16:08:39.218Z,95789.33
2022-09-17T16:14:15.307Z,95801.83
2022-09-17T16:17:22.253Z,95806.25
2022-09-17T16:20:17.720Z,95802.92
2022-09-17T16:23:07.268Z,95808.84
2022-09-17T16:28:43.235Z,95812.11
2022-09-17T16:34:13.236Z,95815.66
2022-09-17T16:37:02.184Z,95820.64
2022-09-17T16:42:33.453Z,95828.84
2022-09-17T16:45:24.393Z,95829.32
2022-09-17T16:50:57.702Z,95825.45
2022-09-17T16:56:36.295Z,95828.98
2022-09-17T17:02:10.447Z,95819.56
2022-09-17T17:07:46.238Z,95822.55
2022-09-17T17:10:35.115Z,95823.97
2022-09-17T17:13:23.440Z,95829.39
2022-09-17T17:16:13.190Z,95825.69
2022-09-17T17:21:57.884Z,95835.79
2022-09-17T17:27:30.886Z,95836.95
2022-09-17T17:30:20.155Z,95841.70
2022-09-17T17:35:56.495Z,95842.49
2022-09-17T17:41:22.845Z,95850.09
2022-09-17T17:44:12.431Z,95853.97
2022-09-17T17:47:00.629Z,95848.30
2022-09-17T17:49:49.161Z,95854.64
2022-09-17T17:52:40.365Z,95846.49
2022-09-17T17:55:29.564Z,95857.36
2022-09-17T17:58:17.980Z,95861.00
2022-09-17T18:03:56.074Z,95871.65
2022-09-17T18:06:44.439Z,95876.41
2022-09-17T18:09:33.491Z,95873.23
2022-09-17T18:15:13.061Z,95877.44
2022-09-17T18:18:02.099Z,95878.55
2022-09-17T18:20:51.093Z,95882.08
2022-09-17T18:26:22.963Z,95892.72
2022-09-17T18:31:57.976Z,95897.94
2022-09-17T18:34:47.024Z,95897.67
2022-09-17T18:37:35.249Z,95904.59
2022-09-17T18:40:30.953Z,95911.91
2022-09-17T18:43:19.172Z,95917.77
2022-09-17T18:46:07.910Z,95921.38
2022-09-17T18:48:56.661Z,95926.15
2022-09-17T18:54:32.919Z,95932.38
2022-09-17T19:00:14.751Z,95937.03
2022-09-17T19:03:03.185Z,95941.09
2022-09-17T19:08:40.147Z,95938.69
2022-09-17T19:14:16.102Z,95950.26
2022-09-17T19:19:53.102Z,95951.03
2022-09-17T19:22:41.306Z,95963.73
2022-09-17T19:25:29.601Z,95966.03
2022-09-17T19:31:20.459Z,95974.09
2022-09-17T19:37:00.736Z,95985.89
2022-09-17T19:42:37.577Z,95996.38
2022-09-17T19:48:28.116Z,96005.92
2022-09-17T19:56:53.847Z,96010.81
2022-09-17T20:05:19.839Z,96014.28
2022-09-17T20:08:08.061Z,96009.89
2022-09-17T20:10:56.902Z,96004.78
2022-09-17T20:13:45.016Z,96008.68
2022-09-17T20:19:20.974Z,96002.67
2022-09-17T20:22:09.324Z,96007.55
2022-09-17T20:27:47.219Z,96009.46
2022-09-17T20:33:24.501Z,96008.53
2022-09-17T20:36:15.924Z,96015.88
2022-09-17T20:41:44.637Z,96015.59
2022-09-17T20:47:37.552Z,96016.95
2022-09-17T20:53:37.653Z,96033.95
2022-09-17T20:59:30.411Z,96028.42
2022-09-17T21:05:00.705Z,96031.17
2022-09-17T21:10:30.481Z,96034.18
2022-09-17T21:16:05.719Z,96026.70
2022-09-17T21:18:58.905Z,96029.75
2022-09-17T21:21:48.154Z,96030.62
2022-09-17T21:24:36.633Z,96032.73
2022-09-17T21:33:08.578Z,96042.70
2022-09-17T21:38:56.383Z,96034.84
2022-09-17T21:47:45.324Z,96048.00
2022-09-17T21:54:05.453Z,96051.13
2022-09-17T21:56:53.551Z,96043.48
2022-09-17T21:59:41.684Z,96048.55
2022-09-17T22:02:32.145Z,96051.98
2022-09-17T22:08:19.754Z,96050.74
2022-09-17T22:13:55.299Z,96050.53
2022-09-17T22:19:26.111Z,96057.20
2022-09-17T22:25:01.558Z,96053.82
2022-09-17T22:30:38.298Z,96059.52
2022-09-17T22:33:32.601Z,96062.55
2022-09-17T22:36:22.385Z,96058.81
2022-09-17T22:42:28.694Z,96058.63
2022-09-17T22:45:19.233Z,96056.05
2022-09-17T22:50:54.300Z,96059.59
2022-09-17T22:53:43.867Z,96055.39
2022-09-17T22:59:18.814Z,96050.92
2022-09-17T23:05:05.287Z,96051.08
2022-09-17T23:10:43.530Z,96050.46
2022-09-17T23:16:22.964Z,96060.34
2022-09-17T23:19:11.977Z,96055.93
2022-09-17T23:28:16.541Z,96056.69
2022-09-17T23:44:19.684Z,96049.73
2022-09-17T23:47:08.310Z,96055.59
2022-09-17T23:49:56.938Z,96051.65
2022-09-17T23:55:38.322Z,96052.13
